createdAt,value
2018-06-06T00:00:27.912Z,39.80
2018-06-06T00:02:56.168Z,44.97
2018-06-06T00:05:24.454Z,36.87
2018-06-06T00:07:52.735Z,32.67
2018-06-06T00:10:21.019Z,40.40
2018-06-06T00:12:49.289Z,37.37
2018-06-06T00:15:17.604Z,45.77
2018-06-06T00:17:45.848Z,49.83
2018-06-06T00:20:14.125Z,39.90
2018-06-06T00:22:42.373Z,39.50
2018-06-06T00:25:10.656Z,43.30
2018-06-06T00:27:38.936Z,44.03
2018-06-06T00:30:07.201Z,34.90
2018-06-06T00:32:35.460Z,42.70
2018-06-06T00:35:03.744Z,45.50
2018-06-06T00:37:32.029Z,33.90
2018-06-06T00:40:00.287Z,44.00
2018-06-06T00:42:28.559Z,39.20
2018-06-06T00:44:56.813Z,53.67
2018-06-06T00:47:25.084Z,32.27
2018-06-06T00:49:53.551Z,48.40
2018-06-06T00:52:21.823Z,38.27
2018-06-06T00:55:01.380Z,40.97
2018-06-06T00:57:29.632Z,38.10
2018-06-06T00:59:57.876Z,39.50
2018-06-06T01:02:26.160Z,44.20
2018-06-06T01:04:54.400Z,58.23
2018-06-06T01:07:22.668Z,53.73
2018-06-06T01:09:50.924Z,44.27
2018-06-06T01:12:18.948Z,42.87
2018-06-06T01:14:47.192Z,59.40
2018-06-06T01:17:15.461Z,46.53
2018-06-06T01:19:43.720Z,47.00
2018-06-06T01:22:11.989Z,43.87
2018-06-06T01:24:40.240Z,44.17
2018-06-06T01:27:08.500Z,55.83
2018-06-06T01:29:36.776Z,53.30
2018-06-06T01:32:05.027Z,47.50
2018-06-06T01:34:33.330Z,38.30
2018-06-06T01:37:01.626Z,43.33
2018-06-06T01:39:29.961Z,42.23
2018-06-06T01:41:58.211Z,46.13
2018-06-06T01:44:26.514Z,38.50
2018-06-06T01:46:54.788Z,43.43
2018-06-06T01:49:34.528Z,37.43
2018-06-06T01:52:02.804Z,37.23
2018-06-06T01:54:31.061Z,45.80
2018-06-06T01:57:00.130Z,49.27
2018-06-06T01:59:28.420Z,49.23
2018-06-06T02:01:56.713Z,36.07
2018-06-06T02:04:25.015Z,45.33
2018-06-06T02:06:53.352Z,47.13
2018-06-06T02:09:21.798Z,49.67
2018-06-06T02:11:50.044Z,47.07
2018-06-06T02:14:18.328Z,49.40
2018-06-06T02:16:46.602Z,44.03
2018-06-06T02:19:14.897Z,44.13
2018-06-06T02:21:43.155Z,54.17
2018-06-06T02:24:11.544Z,58.30
2018-06-06T02:26:39.814Z,57.73
2018-06-06T02:29:08.076Z,45.80
2018-06-06T02:31:36.356Z,56.27
2018-06-06T02:34:04.368Z,40.20
2018-06-06T02:36:32.688Z,52.00
2018-06-06T02:39:00.979Z,56.67
2018-06-06T02:41:28.972Z,49.83
2018-06-06T02:43:57.240Z,46.13
2018-06-06T02:46:25.560Z,53.03
2018-06-06T02:48:54.087Z,42.50
2018-06-06T02:51:22.351Z,50.40
2018-06-06T02:53:50.613Z,50.77
2018-06-06T02:56:18.882Z,37.80
2018-06-06T02:58:47.153Z,49.07
2018-06-06T03:01:15.430Z,58.60
2018-06-06T03:03:43.716Z,42.23
2018-06-06T03:06:11.991Z,67.13
2018-06-06T03:08:40.275Z,57.87
2018-06-06T03:11:08.708Z,51.83
2018-06-06T03:13:36.980Z,46.60
2018-06-06T03:16:05.233Z,61.30
2018-06-06T03:18:33.483Z,43.40
2018-06-06T03:21:01.700Z,49.23
2018-06-06T03:23:29.960Z,45.00
2018-06-06T03:25:58.186Z,56.10
2018-06-06T03:28:26.413Z,68.33
2018-06-06T03:30:54.692Z,50.43
2018-06-06T03:33:22.943Z,55.50
2018-06-06T03:35:51.731Z,48.25
2018-06-06T03:38:19.962Z,37.40
2018-06-06T03:40:49.263Z,43.33
2018-06-06T03:43:17.503Z,43.83
2018-06-06T03:45:46.615Z,49.60
2018-06-06T03:48:14.877Z,48.90
2018-06-06T03:50:43.166Z,52.43
2018-06-06T03:53:11.432Z,53.53
2018-06-06T03:55:39.684Z,41.17
2018-06-06T03:58:07.973Z,40.70
2018-06-06T04:00:36.188Z,54.53
2018-06-06T04:03:04.171Z,51.10
2018-06-06T04:05:32.445Z,45.03
2018-06-06T04:08:00.736Z,49.23
2018-06-06T04:10:28.986Z,44.47
2018-06-06T04:12:57.234Z,40.67
2018-06-06T04:15:25.511Z,53.17
2018-06-06T04:17:53.764Z,46.07
2018-06-06T04:20:22.004Z,57.50
2018-06-06T04:22:49.997Z,48.40
2018-06-06T04:25:18.276Z,47.10
2018-06-06T04:27:46.518Z,56.83
2018-06-06T04:30:14.767Z,58.10
2018-06-06T04:32:43.716Z,49.37
2018-06-06T04:35:11.946Z,45.37
2018-06-06T04:37:40.212Z,56.60
2018-06-06T04:40:08.571Z,41.93
2018-06-06T04:42:36.764Z,46.57
2018-06-06T04:45:05.044Z,45.20
2018-06-06T04:47:33.292Z,66.20
2018-06-06T04:50:01.525Z,46.50
2018-06-06T04:52:29.515Z,53.57
2018-06-06T04:54:57.768Z,50.63
2018-06-06T04:57:26.037Z,40.03
2018-06-06T04:59:54.284Z,52.00
2018-06-06T05:02:22.543Z,48.73
2018-06-06T05:04:50.796Z,41.67
2018-06-06T05:07:19.085Z,60.60
2018-06-06T05:09:47.391Z,56.67
2018-06-06T05:12:15.719Z,42.83
2018-06-06T05:14:43.948Z,52.87
2018-06-06T05:17:12.177Z,43.10
2018-06-06T05:19:40.158Z,46.33
2018-06-06T05:22:08.444Z,56.00
2018-06-06T05:24:36.685Z,51.37
2018-06-06T05:27:04.901Z,45.57
2018-06-06T05:29:33.482Z,53.13
2018-06-06T05:32:01.790Z,48.30
2018-06-06T05:34:30.021Z,49.50
2018-06-06T05:36:58.265Z,49.23
2018-06-06T05:39:26.561Z,42.10
2018-06-06T05:41:54.832Z,60.03
2018-06-06T05:44:23.087Z,51.30
2018-06-06T05:46:51.296Z,70.57
2018-06-06T05:49:19.508Z,47.43
2018-06-06T05:51:47.740Z,47.77
2018-06-06T05:54:15.964Z,52.23
2018-06-06T05:56:44.231Z,45.67
2018-06-06T05:59:12.460Z,49.97
2018-06-06T06:01:40.450Z,42.00
2018-06-06T06:04:08.684Z,55.63
2018-06-06T06:06:36.908Z,62.80
2018-06-06T06:09:06.726Z,54.97
2018-06-06T06:11:34.976Z,51.20
2018-06-06T06:14:03.201Z,39.47
2018-06-06T06:16:31.463Z,46.73
2018-06-06T06:18:59.716Z,53.53
2018-06-06T06:21:27.706Z,49.23
2018-06-06T06:23:55.947Z,48.90
2018-06-06T06:26:24.164Z,43.70
2018-06-06T06:28:52.555Z,54.63
2018-06-06T06:31:20.801Z,50.73
2018-06-06T06:33:49.072Z,44.40
2018-06-06T06:36:17.309Z,52.90
2018-06-06T06:38:45.512Z,50.53
2018-06-06T06:41:13.495Z,51.63
2018-06-06T06:43:41.692Z,51.83
2018-06-06T06:46:09.940Z,48.03
2018-06-06T06:48:37.944Z,46.13
2018-06-06T06:51:06.428Z,40.00
2018-06-06T06:53:34.662Z,47.73
2018-06-06T06:56:02.879Z,42.93
2018-06-06T06:58:31.140Z,54.70
2018-06-06T07:00:59.409Z,42.30
2018-06-06T07:03:27.676Z,36.87
2018-06-06T07:05:55.651Z,44.70
2018-06-06T07:08:23.881Z,43.63
2018-06-06T07:10:52.158Z,41.70
2018-06-06T07:13:20.385Z,51.03
2018-06-06T07:15:48.625Z,44.07
2018-06-06T07:18:16.884Z,35.87
2018-06-06T07:20:45.280Z,45.07
2018-06-06T07:23:13.521Z,41.43
2018-06-06T07:25:41.826Z,56.00
2018-06-06T07:28:10.065Z,46.40
2018-06-06T07:30:38.038Z,50.13
2018-06-06T07:33:06.313Z,41.20
2018-06-06T07:35:34.561Z,40.73
2018-06-06T07:38:02.845Z,51.50
2018-06-06T07:40:31.039Z,48.73
2018-06-06T07:42:59.263Z,40.13
2018-06-06T07:45:27.753Z,50.33
2018-06-06T07:47:55.820Z,45.60
2018-06-06T07:50:24.227Z,39.03
2018-06-06T07:52:52.463Z,54.60
2018-06-06T07:55:20.680Z,42.83
2018-06-06T07:57:48.932Z,44.07
2018-06-06T08:00:17.151Z,52.23
2018-06-06T08:02:45.397Z,41.80
2018-06-06T08:05:13.640Z,50.67
2018-06-06T08:07:41.920Z,58.03
2018-06-06T08:10:10.156Z,45.57
2018-06-06T08:12:38.420Z,39.90
2018-06-06T08:15:06.700Z,36.90
2018-06-06T08:17:34.679Z,49.00
2018-06-06T08:20:03.166Z,34.97
2018-06-06T08:22:31.392Z,40.60
2018-06-06T08:24:59.637Z,36.10
2018-06-06T08:27:27.894Z,37.63
2018-06-06T08:29:56.120Z,43.47
2018-06-06T08:32:24.392Z,39.40
2018-06-06T08:34:52.627Z,45.00
2018-06-06T08:37:20.867Z,47.50
2018-06-06T08:39:49.107Z,42.03
2018-06-06T08:42:17.387Z,35.90
2018-06-06T08:44:45.614Z,42.33
2018-06-06T08:47:13.582Z,43.37
2018-06-06T08:49:41.832Z,41.20
2018-06-06T08:52:10.079Z,33.83
2018-06-06T08:54:38.387Z,46.20
2018-06-06T08:57:06.616Z,30.17
2018-06-06T08:59:34.872Z,41.30
2018-06-06T09:02:02.894Z,38.30
2018-06-06T09:04:31.124Z,32.83
2018-06-06T09:06:59.377Z,38.23
2018-06-06T09:09:27.676Z,45.50
2018-06-06T09:11:55.944Z,32.07
2018-06-06T09:14:24.184Z,35.33
2018-06-06T09:16:52.414Z,40.57
2018-06-06T09:19:20.793Z,28.20
2018-06-06T09:21:49.027Z,33.73
2018-06-06T09:24:17.272Z,28.87
2018-06-06T09:26:45.501Z,37.33
2018-06-06T09:29:13.494Z,39.33
2018-06-06T09:31:41.743Z,28.50
2018-06-06T09:34:09.989Z,34.63
2018-06-06T09:36:38.230Z,38.83
2018-06-06T09:39:08.136Z,29.43
2018-06-06T09:41:36.421Z,30.23
2018-06-06T09:44:04.717Z,30.27
2018-06-06T09:46:32.968Z,29.27
2018-06-06T09:49:01.293Z,30.00
2018-06-06T09:51:29.596Z,28.57
2018-06-06T09:53:57.849Z,32.47
2018-06-06T09:56:26.098Z,25.47
2018-06-06T09:58:54.311Z,33.23
2018-06-06T10:01:22.568Z,30.13
2018-06-06T10:03:50.792Z,22.30
2018-06-06T10:06:19.015Z,30.07
2018-06-06T10:08:47.236Z,30.73
2018-06-06T10:11:15.547Z,20.63
2018-06-06T10:13:43.796Z,30.33
2018-06-06T10:16:12.077Z,28.90
2018-06-06T10:18:40.320Z,26.80
2018-06-06T10:21:08.545Z,35.53
2018-06-06T10:23:36.833Z,25.47
2018-06-06T10:26:05.231Z,31.97
2018-06-06T10:28:33.489Z,30.00
2018-06-06T10:31:01.696Z,26.63
2018-06-06T10:33:29.955Z,23.80
2018-06-06T10:35:58.190Z,25.03
2018-06-06T10:38:26.414Z,20.63
2018-06-06T10:40:54.760Z,30.27
2018-06-06T10:43:23.013Z,31.33
2018-06-06T10:45:51.295Z,27.93
2018-06-06T10:48:19.527Z,29.30
2018-06-06T10:50:47.740Z,23.60
2018-06-06T10:53:15.735Z,19.77
2018-06-06T10:55:43.998Z,22.80
2018-06-06T10:58:12.259Z,21.77
2018-06-06T11:00:40.568Z,26.23
2018-06-06T11:03:08.871Z,21.37
2018-06-06T11:05:37.091Z,23.53
2018-06-06T11:08:05.351Z,19.03
2018-06-06T11:10:33.626Z,16.90
2018-06-06T11:13:01.833Z,15.80
2018-06-06T11:15:30.092Z,20.00
2018-06-06T11:17:58.317Z,23.60
2018-06-06T11:20:26.960Z,19.07
2018-06-06T11:22:55.220Z,16.07
2018-06-06T11:25:23.501Z,28.47
2018-06-06T11:27:51.716Z,18.20
2018-06-06T11:30:19.699Z,18.00
2018-06-06T11:32:47.913Z,16.90
2018-06-06T11:35:16.139Z,19.80
2018-06-06T11:37:44.385Z,15.37
2018-06-06T11:40:12.812Z,15.43
2018-06-06T11:42:41.030Z,16.97
2018-06-06T11:45:09.296Z,16.30
2018-06-06T11:47:37.532Z,17.10
2018-06-06T11:50:05.536Z,15.67
2018-06-06T11:52:33.760Z,14.10
2018-06-06T11:55:01.994Z,22.70
2018-06-06T11:57:30.245Z,17.97
2018-06-06T11:59:58.487Z,18.50
2018-06-06T12:02:26.462Z,12.90
2018-06-06T12:04:54.707Z,13.10
2018-06-06T12:07:22.936Z,18.53
2018-06-06T12:09:51.314Z,15.10
2018-06-06T12:12:19.557Z,16.67
2018-06-06T12:14:47.772Z,15.50
2018-06-06T12:17:16.008Z,14.93
2018-06-06T12:19:44.228Z,19.97
2018-06-06T12:22:12.469Z,12.50
2018-06-06T12:24:40.663Z,11.50
2018-06-06T12:27:08.663Z,12.67
2018-06-06T12:29:36.912Z,11.30
2018-06-06T12:32:05.186Z,12.50
2018-06-06T12:34:33.408Z,16.80
2018-06-06T12:37:01.628Z,9.83
2018-06-06T12:39:29.650Z,10.97
2018-06-06T12:41:57.904Z,11.20
2018-06-06T12:44:26.144Z,13.83
2018-06-06T12:46:54.397Z,16.30
2018-06-06T12:49:22.877Z,15.27
2018-06-06T12:51:51.110Z,13.87
2018-06-06T12:54:19.347Z,14.70
2018-06-06T12:56:47.600Z,25.80
2018-06-06T12:59:15.859Z,14.77
2018-06-06T13:01:44.096Z,10.77
2018-06-06T13:04:12.312Z,10.93
2018-06-06T13:06:40.568Z,12.63
2018-06-06T13:09:09.059Z,26.27
2018-06-06T13:11:37.280Z,17.93
2018-06-06T13:14:05.528Z,14.30
2018-06-06T13:16:33.758Z,12.30
2018-06-06T13:19:02.009Z,16.13
2018-06-06T13:21:30.295Z,14.93
2018-06-06T13:23:58.536Z,13.00
2018-06-06T13:26:26.791Z,16.57
2018-06-06T13:28:55.014Z,12.47
2018-06-06T13:31:23.257Z,18.33
2018-06-06T13:33:51.486Z,13.20
2018-06-06T13:36:19.705Z,12.57
2018-06-06T13:38:47.955Z,13.83
2018-06-06T13:41:16.268Z,11.73
2018-06-06T13:43:44.489Z,14.90
2018-06-06T13:46:12.712Z,13.83
2018-06-06T13:48:40.948Z,17.87
2018-06-06T13:51:09.245Z,12.80
2018-06-06T13:53:37.477Z,12.53
2018-06-06T13:56:05.758Z,13.10
2018-06-06T13:58:33.988Z,11.03
2018-06-06T14:01:02.352Z,13.63
2018-06-06T14:03:30.579Z,9.33
2018-06-06T14:05:58.839Z,8.83
2018-06-06T14:08:27.076Z,6.50
2018-06-06T14:10:55.325Z,8.00
2018-06-06T14:13:23.549Z,10.07
2018-06-06T14:15:51.795Z,8.57
2018-06-06T14:18:20.028Z,8.37
2018-06-06T14:20:48.281Z,12.63
2018-06-06T14:23:16.624Z,6.70
2018-06-06T14:25:44.801Z,8.30
2018-06-06T14:28:12.755Z,4.60
2018-06-06T14:30:41.021Z,4.80
2018-06-06T14:33:09.314Z,8.10
2018-06-06T14:35:37.564Z,9.83
2018-06-06T14:38:05.779Z,4.13
2018-06-06T14:40:33.737Z,3.77
2018-06-06T14:43:01.976Z,6.17
2018-06-06T14:45:30.191Z,4.12
2018-06-06T14:47:58.171Z,5.53
2018-06-06T14:50:37.664Z,8.75
2018-06-06T14:53:05.877Z,3.77
2018-06-06T14:55:34.111Z,3.60
2018-06-06T14:58:02.337Z,8.48
2018-06-06T15:00:30.604Z,6.42
2018-06-06T15:02:58.824Z,2.70
2018-06-06T15:05:27.107Z,3.05
2018-06-06T15:07:55.339Z,9.03
2018-06-06T15:10:23.574Z,3.83
2018-06-06T15:12:51.818Z,5.92
2018-06-06T15:15:20.057Z,3.42
2018-06-06T15:17:48.342Z,4.45
2018-06-06T15:20:16.544Z,4.60
2018-06-06T15:22:44.792Z,4.30
2018-06-06T15:25:13.049Z,2.83
2018-06-06T15:27:41.291Z,4.12
2018-06-06T15:30:09.741Z,4.22
2018-06-06T15:32:38.025Z,8.13
2018-06-06T15:35:06.250Z,4.03
2018-06-06T15:37:34.463Z,3.83
2018-06-06T15:40:02.459Z,3.65
2018-06-06T15:42:30.672Z,3.27
2018-06-06T15:44:58.924Z,3.45
2018-06-06T15:47:27.139Z,3.40
2018-06-06T15:49:55.395Z,3.87
2018-06-06T15:52:23.633Z,3.37
2018-06-06T15:54:51.872Z,4.10
2018-06-06T15:57:20.119Z,7.53
2018-06-06T15:59:48.432Z,5.00
2018-06-06T16:02:16.693Z,6.90
2018-06-06T16:04:44.928Z,5.70
2018-06-06T16:07:13.249Z,5.70
2018-06-06T16:09:41.447Z,7.00
2018-06-06T16:12:09.700Z,6.23
2018-06-06T16:14:37.932Z,12.53
2018-06-06T16:17:06.208Z,6.03
2018-06-06T16:19:34.490Z,8.37
2018-06-06T16:22:02.633Z,7.73
2018-06-06T16:24:30.854Z,7.43
2018-06-06T16:26:59.068Z,7.17
2018-06-06T16:29:27.348Z,6.97
2018-06-06T16:31:55.545Z,6.27
2018-06-06T16:34:23.567Z,10.50
2018-06-06T16:36:51.791Z,11.97
2018-06-06T16:39:20.021Z,6.17
2018-06-06T16:41:48.321Z,8.67
2018-06-06T16:44:16.548Z,7.20
2018-06-06T16:46:44.883Z,14.57
2018-06-06T16:49:13.142Z,10.30
2018-06-06T16:51:41.368Z,10.03
2018-06-06T16:54:09.619Z,13.30
2018-06-06T16:56:37.600Z,10.90
2018-06-06T16:59:06.061Z,8.00
2018-06-06T17:01:35.167Z,16.20
2018-06-06T17:04:03.421Z,8.77
2018-06-06T17:06:31.683Z,13.47
2018-06-06T17:08:59.918Z,18.27
2018-06-06T17:11:28.135Z,15.00
2018-06-06T17:13:56.370Z,8.80
2018-06-06T17:16:24.640Z,17.33
2018-06-06T17:18:53.099Z,16.80
2018-06-06T17:21:21.337Z,15.13
2018-06-06T17:23:51.427Z,11.20
2018-06-06T17:26:19.684Z,13.90
2018-06-06T17:28:47.648Z,7.70
2018-06-06T17:31:16.072Z,11.70
2018-06-06T17:33:44.295Z,10.13
2018-06-06T17:36:12.529Z,9.87
2018-06-06T17:38:40.832Z,18.23
2018-06-06T17:41:09.199Z,11.70
2018-06-06T17:43:37.404Z,10.57
2018-06-06T17:46:05.643Z,8.27
2018-06-06T17:48:34.057Z,7.10
2018-06-06T17:51:02.396Z,12.60
2018-06-06T17:53:30.599Z,8.33
2018-06-06T17:55:58.837Z,17.50
2018-06-06T17:58:27.076Z,13.47
2018-06-06T18:00:55.365Z,13.20
2018-06-06T18:03:23.363Z,9.80
2018-06-06T18:05:51.564Z,13.33
2018-06-06T18:08:19.819Z,13.73
2018-06-06T18:10:48.037Z,13.13
2018-06-06T18:13:16.299Z,11.00
2018-06-06T18:15:44.506Z,19.80
2018-06-06T18:18:12.691Z,13.80
2018-06-06T18:20:41.271Z,15.27
2018-06-06T18:23:10.013Z,18.43
2018-06-06T18:25:38.309Z,15.73
2018-06-06T18:28:06.558Z,12.50
2018-06-06T18:30:34.880Z,13.60
2018-06-06T18:33:03.222Z,25.60
2018-06-06T18:35:31.459Z,17.47
2018-06-06T18:37:59.434Z,27.13
2018-06-06T18:40:27.743Z,13.53
2018-06-06T18:42:56.000Z,14.20
2018-06-06T18:45:24.252Z,21.60
2018-06-06T18:47:52.524Z,13.77
2018-06-06T18:50:20.796Z,15.77
2018-06-06T18:52:49.696Z,17.30
2018-06-06T18:55:18.313Z,15.00
2018-06-06T18:57:46.563Z,20.23
2018-06-06T19:00:15.357Z,15.83
2018-06-06T19:02:43.611Z,15.80
2018-06-06T19:05:11.950Z,16.80
2018-06-06T19:07:40.230Z,16.17
2018-06-06T19:10:09.343Z,10.97
2018-06-06T19:12:38.526Z,17.40
2018-06-06T19:15:06.767Z,13.20
2018-06-06T19:17:34.823Z,13.00
2018-06-06T19:20:03.321Z,16.23
2018-06-06T19:22:31.863Z,14.90
2018-06-06T19:25:00.347Z,22.43
2018-06-06T19:27:28.698Z,14.10
2018-06-06T19:29:57.255Z,15.73
2018-06-06T19:32:25.837Z,15.13
2018-06-06T19:34:54.510Z,23.37
2018-06-06T19:37:23.325Z,14.20
2018-06-06T19:39:51.926Z,19.97
2018-06-06T19:42:20.332Z,16.10
2018-06-06T19:44:49.071Z,18.60
2018-06-06T19:47:17.436Z,15.93
2018-06-06T19:49:46.260Z,21.17
2018-06-06T19:52:14.849Z,25.70
2018-06-06T19:54:43.235Z,17.27
2018-06-06T19:57:11.574Z,23.40
2018-06-06T19:59:40.140Z,15.93
2018-06-06T20:02:09.575Z,16.23
2018-06-06T20:04:37.967Z,14.93
2018-06-06T20:07:06.728Z,13.70
2018-06-06T20:09:35.425Z,17.03
2018-06-06T20:12:03.849Z,15.33
2018-06-06T20:14:32.512Z,16.63
2018-06-06T20:17:01.455Z,20.27
2018-06-06T20:19:29.865Z,24.33
2018-06-06T20:21:58.125Z,19.47
2018-06-06T20:24:26.443Z,18.90
2018-06-06T20:26:54.609Z,12.57
2018-06-06T20:29:22.855Z,17.40
2018-06-06T20:31:50.827Z,18.10
2018-06-06T20:34:19.076Z,15.20
2018-06-06T20:36:47.307Z,17.80
2018-06-06T20:39:15.557Z,26.57
2018-06-06T20:41:43.555Z,18.50
2018-06-06T20:44:11.780Z,15.87
2018-06-06T20:46:40.043Z,16.27
2018-06-06T20:49:08.312Z,21.73
2018-06-06T20:51:36.649Z,17.67
2018-06-06T20:54:04.962Z,19.20
2018-06-06T20:56:33.235Z,18.07
2018-06-06T20:59:01.476Z,17.40
2018-06-06T21:01:29.794Z,16.90
2018-06-06T21:03:58.813Z,16.57
2018-06-06T21:06:27.051Z,17.23
2018-06-06T21:08:55.336Z,21.47
2018-06-06T21:11:24.001Z,18.17
2018-06-06T21:13:52.269Z,15.30
2018-06-06T21:16:20.614Z,17.50
2018-06-06T21:18:48.856Z,24.70
2018-06-06T21:21:17.098Z,21.10
2018-06-06T21:23:45.420Z,16.90
2018-06-06T21:26:13.649Z,16.93
2018-06-06T21:28:41.871Z,15.27
2018-06-06T21:31:10.311Z,14.13
2018-06-06T21:33:38.925Z,18.70
2018-06-06T21:36:07.164Z,27.30
2018-06-06T21:38:35.387Z,20.70
2018-06-06T21:41:03.720Z,16.40
2018-06-06T21:43:31.957Z,14.90
2018-06-06T21:46:00.189Z,20.23
2018-06-06T21:48:28.403Z,21.13
2018-06-06T21:50:56.648Z,17.50
2018-06-06T21:53:24.867Z,19.70
2018-06-06T21:55:59.397Z,27.23
2018-06-06T21:58:27.672Z,17.20
2018-06-06T22:00:56.049Z,19.97
2018-06-06T22:03:24.242Z,16.90
2018-06-06T22:05:52.517Z,17.43
2018-06-06T22:08:20.739Z,21.40
2018-06-06T22:10:49.212Z,16.57
2018-06-06T22:13:17.435Z,18.00
2018-06-06T22:15:45.696Z,25.60
2018-06-06T22:18:13.909Z,21.60
2018-06-06T22:20:42.159Z,19.17
2018-06-06T22:23:10.410Z,18.43
2018-06-06T22:25:38.632Z,17.10
2018-06-06T22:28:06.880Z,16.13
2018-06-06T22:30:35.096Z,27.00
2018-06-06T22:33:03.123Z,17.10
2018-06-06T22:35:31.373Z,16.60
2018-06-06T22:37:59.623Z,17.07
2018-06-06T22:40:27.876Z,15.43
2018-06-06T22:42:56.129Z,17.23
2018-06-06T22:45:24.347Z,14.67
2018-06-06T22:47:52.632Z,24.70
2018-06-06T22:50:20.634Z,15.30
2018-06-06T22:52:48.856Z,15.07
2018-06-06T22:55:18.198Z,20.27
2018-06-06T22:57:46.494Z,20.07
2018-06-06T23:00:19.395Z,26.53
2018-06-06T23:02:47.627Z,18.10
2018-06-06T23:05:15.645Z,18.93
2018-06-06T23:07:43.916Z,18.13
2018-06-06T23:10:12.536Z,21.20
2018-06-06T23:12:40.844Z,18.37
2018-06-06T23:15:09.117Z,16.57
2018-06-06T23:17:37.361Z,30.10
2018-06-06T23:20:05.567Z,14.17
2018-06-06T23:22:33.559Z,25.70
2018-06-06T23:25:01.892Z,18.40
2018-06-06T23:27:30.071Z,18.57
2018-06-06T23:29:58.291Z,19.80
2018-06-06T23:32:26.511Z,20.10
2018-06-06T23:34:54.760Z,19.87
2018-06-06T23:37:23.004Z,21.93
2018-06-06T23:39:51.257Z,28.73
2018-06-06T23:42:19.532Z,32.80
2018-06-06T23:44:47.739Z,20.30
2018-06-06T23:47:15.951Z,22.60
2018-06-06T23:49:44.219Z,19.53
2018-06-06T23:52:12.508Z,18.77
2018-06-06T23:54:40.726Z,18.30
2018-06-06T23:57:08.928Z,27.90
2018-06-06T23:59:37.187Z,37.30
